createdAt,value
2023-02-17T00:02:15.720Z,8.70
2023-02-17T00:04:42.439Z,8.70
2023-02-17T00:07:09.242Z,8.70
2023-02-17T00:09:37.406Z,8.70
2023-02-17T00:12:04.330Z,8.70
2023-02-17T00:14:30.965Z,8.80
2023-02-17T00:16:57.617Z,8.80
2023-02-17T00:19:25.299Z,8.70
2023-02-17T00:21:55.582Z,8.80
2023-02-17T00:24:24.204Z,8.80
2023-02-17T00:26:51.227Z,8.80
2023-02-17T00:29:20.261Z,8.80
2023-02-17T00:31:47.112Z,8.80
2023-02-17T00:34:15.551Z,8.80
2023-02-17T00:36:42.236Z,8.80
2023-02-17T00:39:08.948Z,8.80
2023-02-17T00:41:35.622Z,8.80
2023-02-17T00:44:02.386Z,8.90
2023-02-17T00:46:29.711Z,8.80
2023-02-17T00:48:56.945Z,8.90
2023-02-17T00:51:25.296Z,8.90
2023-02-17T00:53:52.226Z,8.90
2023-02-17T00:56:19.116Z,8.90
2023-02-17T00:58:46.613Z,8.90
2023-02-17T01:01:13.317Z,9.00
2023-02-17T01:03:42.231Z,8.90
2023-02-17T01:06:11.881Z,9.00
2023-02-17T01:08:38.505Z,9.00
2023-02-17T01:11:05.336Z,9.00
2023-02-17T01:13:32.115Z,9.00
2023-02-17T01:15:58.862Z,8.90
2023-02-17T01:18:25.743Z,9.00
2023-02-17T01:20:52.921Z,9.10
2023-02-17T01:23:19.852Z,9.00
2023-02-17T01:25:50.845Z,9.00
2023-02-17T01:28:21.384Z,9.00
2023-02-17T01:30:49.695Z,9.00
2023-02-17T01:33:16.682Z,9.00
2023-02-17T01:35:43.728Z,9.10
2023-02-17T01:38:10.397Z,9.00
2023-02-17T01:40:37.167Z,9.10
2023-02-17T01:43:04.375Z,9.10
2023-02-17T01:45:46.180Z,9.10
2023-02-17T01:48:17.014Z,9.10
2023-02-17T01:50:52.990Z,9.10
2023-02-17T01:53:25.769Z,9.20
2023-02-17T01:55:53.644Z,9.20
2023-02-17T01:58:23.233Z,9.10
2023-02-17T02:00:53.421Z,9.10
2023-02-17T02:03:20.680Z,9.10
2023-02-17T02:05:47.368Z,9.20
2023-02-17T02:08:15.983Z,9.20
2023-02-17T02:10:42.560Z,9.20
2023-02-17T02:13:09.786Z,9.30
2023-02-17T02:15:51.914Z,9.30
2023-02-17T02:18:35.722Z,9.30
2023-02-17T02:21:39.501Z,9.30
2023-02-17T02:24:19.400Z,9.30
2023-02-17T02:27:15.717Z,9.30
2023-02-17T02:30:19.662Z,9.30
2023-02-17T02:32:57.250Z,9.30
2023-02-17T02:35:42.436Z,9.30
2023-02-17T02:38:20.319Z,9.30
2023-02-17T02:40:52.365Z,9.30
2023-02-17T02:43:19.551Z,9.40
2023-02-17T02:45:46.371Z,9.30
2023-02-17T02:48:13.180Z,9.30
2023-02-17T02:51:12.774Z,9.40
2023-02-17T02:53:56.584Z,9.40
2023-02-17T02:56:38.465Z,9.40
2023-02-17T02:59:38.436Z,9.40
2023-02-17T03:02:30.584Z,9.40
2023-02-17T03:05:15.303Z,9.40
2023-02-17T03:07:45.683Z,9.40
2023-02-17T03:10:14.652Z,9.40
2023-02-17T03:12:41.462Z,9.50
2023-02-17T03:15:19.493Z,9.40
2023-02-17T03:17:46.115Z,9.50
2023-02-17T03:20:14.678Z,9.50
2023-02-17T03:22:46.153Z,9.50
2023-02-17T03:25:13.175Z,9.50
2023-02-17T03:27:39.940Z,9.50
2023-02-17T03:30:07.569Z,9.50
2023-02-17T03:32:34.662Z,9.50
2023-02-17T03:35:01.336Z,9.50
2023-02-17T03:37:27.998Z,9.50
2023-02-17T03:39:54.647Z,9.50
2023-02-17T03:42:21.338Z,9.50
2023-02-17T03:44:47.946Z,9.50
2023-02-17T03:47:14.590Z,9.50
2023-02-17T03:49:41.186Z,9.60
2023-02-17T03:52:08.011Z,9.60
2023-02-17T03:54:34.664Z,9.60
2023-02-17T03:57:01.331Z,9.60
2023-02-17T03:59:28.463Z,9.60
2023-02-17T04:01:55.053Z,9.70
2023-02-17T04:04:21.764Z,9.60
2023-02-17T04:06:48.690Z,9.70
2023-02-17T04:09:15.408Z,9.60
2023-02-17T04:11:43.353Z,9.80
2023-02-17T04:14:09.989Z,9.70
2023-02-17T04:16:39.355Z,9.70
2023-02-17T04:19:10.605Z,9.70
2023-02-17T04:21:37.260Z,9.70
2023-02-17T04:24:04.230Z,9.70
2023-02-17T04:26:31.678Z,9.80
2023-02-17T04:28:58.875Z,9.80
2023-02-17T04:31:28.121Z,9.80
2023-02-17T04:33:55.097Z,9.70
2023-02-17T04:36:22.057Z,9.80
2023-02-17T04:38:48.731Z,9.80
2023-02-17T04:41:15.325Z,9.80
2023-02-17T04:43:42.016Z,9.80
2023-02-17T04:46:09.337Z,9.90
2023-02-17T04:48:36.141Z,9.90
2023-02-17T04:51:02.859Z,9.90
2023-02-17T04:53:29.489Z,9.90
2023-02-17T04:55:56.161Z,9.90
2023-02-17T04:58:22.977Z,9.90
2023-02-17T05:00:51.058Z,9.90
2023-02-17T05:03:20.633Z,9.90
2023-02-17T05:05:48.587Z,10.00
2023-02-17T05:08:15.277Z,9.90
2023-02-17T05:10:43.581Z,9.90
2023-02-17T05:13:10.612Z,10.00
2023-02-17T05:15:37.478Z,10.00
2023-02-17T05:18:04.264Z,10.00
2023-02-17T05:20:31.434Z,10.00
2023-02-17T05:22:58.067Z,10.00
2023-02-17T05:25:24.755Z,10.00
2023-02-17T05:27:51.428Z,10.00
2023-02-17T05:30:18.342Z,10.00
2023-02-17T05:32:45.158Z,10.00
2023-02-17T05:35:12.018Z,10.00
2023-02-17T05:37:38.666Z,10.00
2023-02-17T05:40:06.486Z,9.90
2023-02-17T05:42:33.180Z,10.00
2023-02-17T05:44:59.758Z,10.30
2023-02-17T05:47:27.846Z,10.00
2023-02-17T05:49:54.628Z,10.10
2023-02-17T05:52:21.295Z,10.00
2023-02-17T05:54:47.918Z,10.00
2023-02-17T05:57:15.627Z,10.00
2023-02-17T05:59:42.414Z,10.00
2023-02-17T06:02:09.008Z,10.00
2023-02-17T06:04:35.916Z,10.00
2023-02-17T06:07:03.937Z,10.00
2023-02-17T06:09:30.647Z,10.00
2023-02-17T06:11:57.327Z,10.00
2023-02-17T06:14:24.205Z,10.00
2023-02-17T06:16:50.909Z,10.00
2023-02-17T06:19:17.558Z,10.00
2023-02-17T06:21:44.321Z,10.10
2023-02-17T06:24:11.217Z,10.10
2023-02-17T06:26:37.851Z,10.00
2023-02-17T06:29:05.548Z,10.00
2023-02-17T06:31:32.344Z,10.00
2023-02-17T06:33:59.211Z,10.00
2023-02-17T06:36:25.887Z,9.90
2023-02-17T06:38:52.450Z,10.00
2023-02-17T06:41:19.012Z,10.30
2023-02-17T06:43:45.638Z,10.00
2023-02-17T06:46:12.600Z,10.00
2023-02-17T06:48:39.279Z,10.00
2023-02-17T06:51:08.711Z,10.00
2023-02-17T06:53:35.412Z,10.10
2023-02-17T06:56:02.082Z,10.10
2023-02-17T06:58:28.786Z,10.00
2023-02-17T07:00:55.421Z,10.00
2023-02-17T07:03:22.068Z,10.10
2023-02-17T07:05:48.900Z,10.10
2023-02-17T07:08:15.660Z,10.20
2023-02-17T07:10:42.938Z,10.10
2023-02-17T07:13:11.022Z,10.10
2023-02-17T07:15:37.625Z,10.00
2023-02-17T07:18:04.634Z,10.00
2023-02-17T07:20:32.288Z,10.00
2023-02-17T07:23:01.878Z,10.00
2023-02-17T07:25:28.900Z,10.10
2023-02-17T07:27:55.951Z,10.00
2023-02-17T07:30:22.648Z,10.00
2023-02-17T07:32:49.319Z,10.00
2023-02-17T07:35:17.637Z,10.00
2023-02-17T07:37:44.450Z,10.10
2023-02-17T07:40:11.571Z,10.10
2023-02-17T07:42:38.368Z,10.00
2023-02-17T07:45:05.808Z,10.00
2023-02-17T07:47:33.210Z,10.00
2023-02-17T07:50:00.065Z,10.10
2023-02-17T07:52:26.785Z,10.10
2023-02-17T07:54:54.882Z,10.10
2023-02-17T07:57:21.545Z,10.10
2023-02-17T07:59:48.238Z,10.10
2023-02-17T08:02:15.352Z,10.10
2023-02-17T08:04:42.455Z,10.10
2023-02-17T08:07:09.239Z,10.20
2023-02-17T08:09:54.828Z,10.10
2023-02-17T08:12:42.070Z,10.10
2023-02-17T08:15:12.752Z,10.10
2023-02-17T08:17:42.954Z,10.10
2023-02-17T08:20:09.978Z,10.10
2023-02-17T08:22:37.152Z,10.10
2023-02-17T08:25:06.218Z,10.10
2023-02-17T08:27:33.405Z,10.10
2023-02-17T08:30:00.720Z,10.10
2023-02-17T08:32:28.687Z,10.10
2023-02-17T08:34:56.943Z,10.10
2023-02-17T08:37:23.843Z,10.00
2023-02-17T08:39:50.553Z,10.10
2023-02-17T08:42:17.975Z,10.00
2023-02-17T08:44:44.741Z,10.00
2023-02-17T08:47:11.548Z,10.00
2023-02-17T08:49:38.353Z,10.20
2023-02-17T08:52:05.402Z,10.00
2023-02-17T08:54:32.379Z,10.00
2023-02-17T08:56:59.231Z,10.00
2023-02-17T08:59:26.133Z,10.00
2023-02-17T09:01:52.869Z,10.00
2023-02-17T09:04:19.731Z,10.00
2023-02-17T09:06:49.197Z,10.00
2023-02-17T09:09:19.254Z,10.00
2023-02-17T09:11:46.378Z,10.00
2023-02-17T09:14:13.317Z,10.00
2023-02-17T09:16:41.722Z,10.00
2023-02-17T09:19:08.675Z,10.00
2023-02-17T09:21:35.678Z,10.00
2023-02-17T09:24:02.406Z,10.00
2023-02-17T09:26:29.290Z,9.90
2023-02-17T09:28:57.758Z,10.10
2023-02-17T09:31:26.689Z,10.00
2023-02-17T09:33:55.466Z,9.90
2023-02-17T09:36:27.637Z,10.10
2023-02-17T09:38:54.648Z,10.00
2023-02-17T09:41:40.775Z,10.00
2023-02-17T09:44:17.203Z,9.90
2023-02-17T09:47:01.818Z,10.00
2023-02-17T09:49:37.375Z,10.00
2023-02-17T09:52:19.064Z,10.00
2023-02-17T09:55:10.191Z,10.00
2023-02-17T09:57:56.378Z,10.00
2023-02-17T10:00:35.383Z,10.00
2023-02-17T10:03:14.078Z,10.10
2023-02-17T10:06:05.676Z,10.00
2023-02-17T10:08:42.298Z,10.10
2023-02-17T10:11:19.768Z,10.10
2023-02-17T10:13:46.857Z,10.20
2023-02-17T10:16:21.973Z,10.10
2023-02-17T10:19:14.540Z,10.10
2023-02-17T10:21:47.164Z,10.20
2023-02-17T10:24:14.011Z,10.10
2023-02-17T10:26:48.959Z,10.10
2023-02-17T10:29:37.157Z,10.10
2023-02-17T10:32:13.881Z,10.20
2023-02-17T10:34:58.299Z,10.20
2023-02-17T10:37:40.964Z,10.20
2023-02-17T10:40:25.503Z,10.20
2023-02-17T10:42:56.712Z,10.20
2023-02-17T10:45:35.478Z,10.20
2023-02-17T10:48:09.140Z,10.20
2023-02-17T10:50:38.200Z,10.20
2023-02-17T10:53:21.329Z,10.20
2023-02-17T10:55:53.709Z,10.30
2023-02-17T10:58:29.134Z,10.30
2023-02-17T11:00:57.945Z,10.30
2023-02-17T11:03:29.585Z,10.30
2023-02-17T11:06:20.265Z,10.30
2023-02-17T11:08:54.034Z,10.40
2023-02-17T11:11:26.858Z,10.40
2023-02-17T11:14:18.826Z,10.30
2023-02-17T11:17:07.657Z,10.30
2023-02-17T11:19:35.683Z,10.40
2023-02-17T11:22:05.389Z,10.40
2023-02-17T11:24:34.504Z,10.40
2023-02-17T11:27:09.296Z,10.40
2023-02-17T11:29:35.962Z,10.40
2023-02-17T11:32:07.374Z,10.40
2023-02-17T11:34:36.831Z,10.50
2023-02-17T11:37:09.335Z,10.50
2023-02-17T11:39:41.262Z,10.50
2023-02-17T11:42:28.587Z,10.40
2023-02-17T11:44:57.943Z,10.50
2023-02-17T11:47:42.628Z,10.50
2023-02-17T11:50:41.404Z,10.50
2023-02-17T11:53:42.381Z,10.60
2023-02-17T11:56:20.800Z,10.60
2023-02-17T12:02:19.382Z,10.60
2023-02-17T12:04:52.922Z,10.60
2023-02-17T12:07:42.791Z,10.70
2023-02-17T12:10:19.899Z,10.70
2023-02-17T12:13:13.031Z,10.80
2023-02-17T12:15:45.112Z,10.70
2023-02-17T12:18:42.206Z,10.70
2023-02-17T12:21:17.889Z,10.70
2023-02-17T12:24:18.157Z,10.70
2023-02-17T12:26:57.022Z,10.70
2023-02-17T12:29:42.939Z,10.70
2023-02-17T12:32:18.635Z,10.70
2023-02-17T12:34:56.907Z,10.70
2023-02-17T12:37:31.949Z,10.70
2023-02-17T12:40:16.224Z,10.70
2023-02-17T12:42:52.620Z,10.70
2023-02-17T12:45:25.058Z,10.70
2023-02-17T12:48:01.532Z,10.70
2023-02-17T12:50:57.112Z,10.70
2023-02-17T12:53:40.357Z,10.80
2023-02-17T12:56:30.434Z,10.80
2023-02-17T12:59:12.818Z,10.80
2023-02-17T13:01:48.897Z,10.70
2023-02-17T13:04:19.559Z,11.20
2023-02-17T13:06:53.345Z,10.80
2023-02-17T13:09:36.013Z,10.70
2023-02-17T13:12:24.738Z,10.70
2023-02-17T13:15:00.220Z,10.80
2023-02-17T13:17:39.137Z,10.80
2023-02-17T13:20:12.813Z,10.80
2023-02-17T13:22:41.691Z,10.80
2023-02-17T13:25:31.290Z,10.90
2023-02-17T13:27:59.991Z,10.80
2023-02-17T13:30:41.463Z,10.80
2023-02-17T13:33:20.442Z,10.80
2023-02-17T13:35:47.599Z,10.80
2023-02-17T13:38:25.253Z,10.80
2023-02-17T13:40:52.430Z,11.00
2023-02-17T13:43:20.494Z,11.00
2023-02-17T13:45:53.299Z,10.90
2023-02-17T13:48:27.169Z,11.00
2023-02-17T13:51:02.474Z,11.00
2023-02-17T13:53:33.214Z,11.00
2023-02-17T13:56:11.810Z,11.00
2023-02-17T13:58:42.362Z,11.00
2023-02-17T14:01:16.474Z,11.10
2023-02-17T14:03:48.582Z,11.10
2023-02-17T14:06:32.585Z,11.10
2023-02-17T14:09:00.105Z,11.20
2023-02-17T14:11:29.839Z,11.20
2023-02-17T14:13:59.209Z,11.30
2023-02-17T14:16:33.346Z,11.40
2023-02-17T14:19:12.650Z,11.30
2023-02-17T14:21:48.716Z,11.40
2023-02-17T14:24:38.569Z,11.40
2023-02-17T14:27:09.934Z,11.50
2023-02-17T14:29:50.392Z,11.50
2023-02-17T14:32:36.121Z,11.40
2023-02-17T14:35:29.240Z,11.30
2023-02-17T14:38:06.301Z,11.10
2023-02-17T14:40:32.979Z,11.10
2023-02-17T14:42:59.796Z,11.00
2023-02-17T14:45:26.486Z,11.00
2023-02-17T14:47:53.468Z,10.90
2023-02-17T14:50:20.059Z,10.80
2023-02-17T14:52:48.857Z,10.90
2023-02-17T14:55:26.649Z,10.80
2023-02-17T14:57:54.627Z,10.70
2023-02-17T15:00:21.525Z,10.70
2023-02-17T15:02:48.660Z,10.60
2023-02-17T15:05:16.342Z,10.60
2023-02-17T15:07:43.772Z,10.60
2023-02-17T15:10:25.373Z,10.50
2023-02-17T15:12:52.592Z,10.50
2023-02-17T15:15:19.520Z,10.40
2023-02-17T15:17:46.564Z,10.40
2023-02-17T15:20:14.983Z,10.30
2023-02-17T15:22:42.286Z,10.30
2023-02-17T15:25:20.459Z,10.20
2023-02-17T15:27:47.052Z,10.20
2023-02-17T15:30:16.873Z,10.10
2023-02-17T15:32:44.284Z,10.00
2023-02-17T15:35:18.202Z,10.00
2023-02-17T15:37:45.170Z,10.00
2023-02-17T15:40:17.433Z,9.90
2023-02-17T15:42:46.230Z,9.90
2023-02-17T15:45:16.847Z,9.70
2023-02-17T15:47:43.705Z,9.70
2023-02-17T15:50:20.429Z,9.70
2023-02-17T15:52:47.459Z,9.60
2023-02-17T15:55:14.360Z,9.60
2023-02-17T15:57:51.450Z,9.60
2023-02-17T16:00:31.124Z,9.50
2023-02-17T16:02:58.259Z,9.50
2023-02-17T16:05:27.544Z,9.40
2023-02-17T16:07:55.228Z,9.40
2023-02-17T16:10:27.003Z,9.30
2023-02-17T16:12:56.266Z,9.30
2023-02-17T16:15:25.085Z,9.30
2023-02-17T16:17:51.928Z,9.20
2023-02-17T16:20:22.679Z,9.10
2023-02-17T16:22:49.796Z,9.10
2023-02-17T16:25:18.372Z,9.10
2023-02-17T16:27:49.740Z,9.10
2023-02-17T16:30:23.951Z,9.10
2023-02-17T16:32:51.466Z,9.00
2023-02-17T16:35:20.947Z,9.00
2023-02-17T16:37:56.536Z,8.90
2023-02-17T16:40:26.760Z,8.90
2023-02-17T16:42:53.894Z,8.90
2023-02-17T16:45:27.031Z,8.90
2023-02-17T16:47:56.351Z,8.90
2023-02-17T16:50:34.940Z,8.80
2023-02-17T16:53:06.313Z,8.80
2023-02-17T16:55:35.030Z,8.70
2023-02-17T16:58:03.658Z,8.80
2023-02-17T17:00:32.464Z,8.70
2023-02-17T17:02:59.708Z,8.70
2023-02-17T17:05:28.786Z,8.70
2023-02-17T17:07:56.320Z,8.60
2023-02-17T17:10:26.479Z,8.60
2023-02-17T17:12:53.416Z,8.60
2023-02-17T17:15:20.637Z,8.60
2023-02-17T17:17:59.746Z,8.50
2023-02-17T17:20:31.196Z,8.50
2023-02-17T17:22:59.596Z,8.50
2023-02-17T17:25:28.213Z,8.40
2023-02-17T17:27:55.825Z,8.50
2023-02-17T17:30:26.870Z,8.40
2023-02-17T17:32:53.577Z,8.40
2023-02-17T17:35:20.489Z,8.40
2023-02-17T17:37:47.507Z,8.40
2023-02-17T17:40:24.856Z,8.30
2023-02-17T17:42:52.246Z,8.30
2023-02-17T17:45:19.460Z,8.30
2023-02-17T17:47:46.436Z,8.30
2023-02-17T17:50:19.531Z,8.20
2023-02-17T17:52:46.978Z,8.20
2023-02-17T17:55:14.079Z,8.20
2023-02-17T17:57:41.519Z,8.20
2023-02-17T18:00:14.147Z,8.20
2023-02-17T18:02:40.779Z,8.10
2023-02-17T18:05:08.298Z,8.20
2023-02-17T18:07:38.252Z,8.20
2023-02-17T18:10:07.874Z,8.20
2023-02-17T18:12:35.336Z,8.10
2023-02-17T18:15:04.403Z,8.10
2023-02-17T18:17:37.899Z,8.10
2023-02-17T18:20:06.187Z,8.10
2023-02-17T18:22:33.211Z,8.20
2023-02-17T18:25:00.040Z,8.10
2023-02-17T18:27:26.694Z,8.10
2023-02-17T18:29:56.628Z,8.10
2023-02-17T18:32:24.468Z,8.10
2023-02-17T18:34:51.129Z,8.10
2023-02-17T18:37:17.849Z,8.10
2023-02-17T18:39:44.677Z,8.00
2023-02-17T18:42:11.441Z,8.00
2023-02-17T18:44:38.021Z,8.00
2023-02-17T18:47:04.715Z,8.60
2023-02-17T18:49:31.364Z,8.00
2023-02-17T18:51:57.979Z,8.00
2023-02-17T18:54:24.635Z,8.00
2023-02-17T18:56:51.269Z,7.90
2023-02-17T18:59:19.677Z,7.90
2023-02-17T19:01:46.686Z,7.90
2023-02-17T19:04:14.926Z,7.80
2023-02-17T19:06:42.093Z,7.80
2023-02-17T19:09:08.842Z,7.80
2023-02-17T19:11:35.653Z,7.80
2023-02-17T19:14:03.105Z,7.80
2023-02-17T19:16:31.661Z,7.80
2023-02-17T19:18:59.552Z,7.80
2023-02-17T19:21:26.241Z,7.80
2023-02-17T19:23:53.200Z,7.80
2023-02-17T19:26:20.769Z,7.80
2023-02-17T19:28:47.585Z,7.80
2023-02-17T19:31:17.321Z,7.80
2023-02-17T19:33:44.968Z,7.80
2023-02-17T19:36:17.521Z,7.80
2023-02-17T19:38:44.729Z,7.80
2023-02-17T19:41:12.683Z,7.80
2023-02-17T19:43:40.314Z,7.80
2023-02-17T19:46:07.341Z,7.80
2023-02-17T19:48:34.426Z,7.80
2023-02-17T19:51:05.460Z,7.80
2023-02-17T19:53:33.167Z,7.90
2023-02-17T19:56:12.371Z,7.90
2023-02-17T19:58:43.463Z,7.80
2023-02-17T20:01:21.750Z,8.30
2023-02-17T20:03:48.635Z,7.90
2023-02-17T20:06:21.549Z,7.80
2023-02-17T20:08:53.198Z,7.80
2023-02-17T20:11:19.963Z,7.80
2023-02-17T20:13:46.929Z,7.80
2023-02-17T20:16:15.760Z,7.80
2023-02-17T20:18:48.276Z,7.80
2023-02-17T20:21:38.313Z,7.80
2023-02-17T20:26:51.044Z,7.80
2023-02-17T20:29:18.142Z,7.70
2023-02-17T20:31:45.543Z,7.70
2023-02-17T20:34:41.665Z,7.70
2023-02-17T20:37:09.575Z,7.80
2023-02-17T20:39:36.560Z,7.70
2023-02-17T20:42:04.039Z,7.70
2023-02-17T20:44:31.310Z,7.70
2023-02-17T20:46:58.200Z,7.60
2023-02-17T20:49:25.976Z,7.60
2023-02-17T20:51:52.810Z,7.60
2023-02-17T20:54:19.753Z,7.60
2023-02-17T20:56:47.639Z,7.60
2023-02-17T20:59:14.878Z,7.60
2023-02-17T21:01:42.259Z,7.60
2023-02-17T21:04:10.150Z,7.60
2023-02-17T21:06:43.062Z,7.60
2023-02-17T21:09:17.200Z,7.60
2023-02-17T21:11:44.539Z,7.60
2023-02-17T21:14:11.668Z,7.60
2023-02-17T21:16:38.807Z,7.60
2023-02-17T21:19:05.476Z,7.60
2023-02-17T21:21:32.514Z,7.60
2023-02-17T21:23:59.655Z,7.50
2023-02-17T21:26:28.031Z,7.50
2023-02-17T21:28:55.363Z,7.50
2023-02-17T21:31:22.244Z,7.50
2023-02-17T21:33:48.966Z,7.40
2023-02-17T21:36:17.555Z,7.40
2023-02-17T21:38:45.176Z,7.40
2023-02-17T21:41:14.904Z,7.30
2023-02-17T21:44:00.123Z,7.30
2023-02-17T21:46:27.465Z,7.30
2023-02-17T21:48:55.743Z,7.30
2023-02-17T21:51:22.630Z,7.30
2023-02-17T21:53:49.366Z,7.20
2023-02-17T21:56:16.636Z,7.20
2023-02-17T21:58:47.680Z,7.20
2023-02-17T22:01:14.703Z,7.30
2023-02-17T22:03:42.093Z,7.20
2023-02-17T22:06:19.493Z,7.20
2023-02-17T22:08:46.355Z,7.20
2023-02-17T22:11:15.101Z,7.20
2023-02-17T22:13:41.906Z,7.20
2023-02-17T22:16:09.625Z,7.20
2023-02-17T22:18:36.714Z,7.20
2023-02-17T22:21:07.520Z,7.20
2023-02-17T22:23:34.251Z,7.20
2023-02-17T22:26:04.603Z,7.10
2023-02-17T22:28:31.482Z,7.10
2023-02-17T22:30:58.378Z,7.20
2023-02-17T22:33:25.138Z,7.20
2023-02-17T22:36:07.086Z,7.20
2023-02-17T22:38:33.989Z,7.10
2023-02-17T22:41:04.375Z,7.10
2023-02-17T22:43:32.099Z,7.10
2023-02-17T22:45:59.834Z,7.10
2023-02-17T22:48:28.028Z,7.10
2023-02-17T22:50:54.794Z,7.00
2023-02-17T22:53:21.509Z,7.00
2023-02-17T22:55:58.438Z,7.00
2023-02-17T22:58:26.492Z,7.00
2023-02-17T23:01:03.158Z,7.00
2023-02-17T23:03:30.008Z,7.00
2023-02-17T23:06:31.312Z,7.00
2023-02-17T23:08:59.711Z,7.10
2023-02-17T23:11:49.739Z,7.10
2023-02-17T23:14:31.063Z,7.00
2023-02-17T23:17:01.002Z,7.10
2023-02-17T23:19:28.842Z,7.10
2023-02-17T23:21:58.653Z,7.00
2023-02-17T23:24:26.681Z,7.00
2023-02-17T23:26:54.552Z,7.00
2023-02-17T23:29:21.645Z,7.00
2023-02-17T23:31:48.718Z,7.00
2023-02-17T23:34:16.731Z,7.00
2023-02-17T23:36:44.699Z,7.00
2023-02-17T23:39:11.850Z,7.00
2023-02-17T23:41:39.658Z,7.10
2023-02-17T23:44:08.733Z,7.10
2023-02-17T23:46:36.185Z,7.10
2023-02-17T23:49:03.130Z,7.20
2023-02-17T23:51:30.288Z,7.10
2023-02-17T23:53:57.172Z,7.10
2023-02-17T23:56:25.797Z,7.10
2023-02-17T23:58:52.609Z,7.20
